createdAt,value
2022-07-29T00:00:26.197Z,18.52
2022-07-29T00:02:54.263Z,18.47
2022-07-29T00:05:22.409Z,18.46
2022-07-29T00:07:50.418Z,18.42
2022-07-29T00:10:17.978Z,18.38
2022-07-29T00:12:45.543Z,18.29
2022-07-29T00:15:13.432Z,18.32
2022-07-29T00:17:41.000Z,18.28
2022-07-29T00:20:11.416Z,18.16
2022-07-29T00:22:40.318Z,18.12
2022-07-29T00:25:08.965Z,18.03
2022-07-29T00:27:37.844Z,18.08
2022-07-29T00:30:06.595Z,17.94
2022-07-29T00:32:34.631Z,17.88
2022-07-29T00:35:20.543Z,17.87
2022-07-29T00:37:48.102Z,17.93
2022-07-29T00:40:15.569Z,17.81
2022-07-29T00:42:50.267Z,17.78
2022-07-29T00:45:18.704Z,17.72
2022-07-29T00:47:49.944Z,17.72
2022-07-29T00:50:18.003Z,17.60
2022-07-29T00:52:45.838Z,17.56
2022-07-29T00:55:15.456Z,17.61
2022-07-29T00:57:44.745Z,17.53
2022-07-29T01:00:18.437Z,17.54
2022-07-29T01:02:49.334Z,17.48
2022-07-29T01:05:22.210Z,17.39
2022-07-29T01:07:52.727Z,17.35
2022-07-29T01:10:22.231Z,17.32
2022-07-29T01:12:51.910Z,17.33
2022-07-29T01:15:19.754Z,17.20
2022-07-29T01:17:59.058Z,17.26
2022-07-29T01:20:43.821Z,17.11
2022-07-29T01:23:35.381Z,17.16
2022-07-29T01:26:24.393Z,17.10
2022-07-29T01:29:36.269Z,17.11
2022-07-29T01:32:27.635Z,17.02
2022-07-29T01:35:05.917Z,16.89
2022-07-29T01:37:44.239Z,16.91
2022-07-29T01:40:30.649Z,16.87
2022-07-29T01:43:01.387Z,16.71
2022-07-29T01:45:42.216Z,16.87
2022-07-29T01:48:28.233Z,16.85
2022-07-29T01:51:08.788Z,16.82
2022-07-29T01:53:43.816Z,16.74
2022-07-29T01:56:12.295Z,16.72
2022-07-29T01:58:42.687Z,16.71
2022-07-29T02:01:13.765Z,16.62
2022-07-29T02:03:46.112Z,16.59
2022-07-29T02:06:18.495Z,16.55
2022-07-29T02:08:48.877Z,16.55
2022-07-29T02:11:16.804Z,16.56
2022-07-29T02:13:45.999Z,16.56
2022-07-29T02:16:16.418Z,16.65
2022-07-29T02:18:46.766Z,16.68
2022-07-29T02:21:19.247Z,16.66
2022-07-29T02:23:51.065Z,16.71
2022-07-29T02:26:21.526Z,16.76
2022-07-29T02:28:52.711Z,16.68
2022-07-29T02:31:25.815Z,16.85
2022-07-29T02:33:57.729Z,16.89
2022-07-29T02:36:27.315Z,16.95
2022-07-29T02:38:58.825Z,17.00
2022-07-29T02:41:31.995Z,17.13
2022-07-29T02:44:13.625Z,17.16
2022-07-29T02:46:54.405Z,17.26
2022-07-29T02:49:37.057Z,17.29
2022-07-29T02:52:19.428Z,17.34
2022-07-29T02:55:17.627Z,17.41
2022-07-29T02:57:56.188Z,17.41
2022-07-29T03:00:30.156Z,17.45
2022-07-29T03:03:00.734Z,17.44
2022-07-29T03:05:28.749Z,17.57
2022-07-29T03:08:09.445Z,17.67
2022-07-29T03:10:40.052Z,17.71
2022-07-29T03:13:09.108Z,17.74
2022-07-29T03:15:38.116Z,17.77
2022-07-29T03:18:06.876Z,17.76
2022-07-29T03:20:34.620Z,17.87
2022-07-29T03:23:02.120Z,17.87
2022-07-29T03:25:29.817Z,18.03
2022-07-29T03:27:57.638Z,18.13
2022-07-29T03:30:25.240Z,18.12
2022-07-29T03:32:54.461Z,18.18
2022-07-29T03:35:24.325Z,18.32
2022-07-29T03:37:51.823Z,18.40
2022-07-29T03:40:54.127Z,18.58
2022-07-29T03:43:24.326Z,18.48
2022-07-29T03:45:55.785Z,18.63
2022-07-29T03:48:26.370Z,18.81
2022-07-29T03:50:57.004Z,18.91
2022-07-29T03:53:24.651Z,18.94
2022-07-29T03:55:58.204Z,19.05
2022-07-29T03:58:28.549Z,19.15
2022-07-29T04:00:57.087Z,19.26
2022-07-29T04:03:24.781Z,19.21
2022-07-29T04:06:09.123Z,19.46
2022-07-29T04:08:36.667Z,19.48
2022-07-29T04:11:05.205Z,19.55
2022-07-29T04:13:33.607Z,19.59
2022-07-29T04:16:01.203Z,19.65
2022-07-29T04:18:28.800Z,19.65
2022-07-29T04:20:56.440Z,19.79
2022-07-29T04:23:23.951Z,19.79
2022-07-29T04:25:51.409Z,19.88
2022-07-29T04:28:19.033Z,19.90
2022-07-29T04:30:46.696Z,19.98
2022-07-29T04:33:14.220Z,20.02
2022-07-29T04:35:47.202Z,20.16
2022-07-29T04:38:18.339Z,20.16
2022-07-29T04:40:47.089Z,20.23
2022-07-29T04:43:16.407Z,20.32
2022-07-29T04:45:43.907Z,20.38
2022-07-29T04:48:11.708Z,20.42
2022-07-29T04:50:40.859Z,20.43
2022-07-29T04:53:08.805Z,20.49
2022-07-29T04:55:39.085Z,20.52
2022-07-29T04:58:06.754Z,20.58
2022-07-29T05:00:35.256Z,20.73
2022-07-29T05:03:02.831Z,20.79
2022-07-29T05:05:30.790Z,20.87
2022-07-29T05:07:58.371Z,21.01
2022-07-29T05:10:25.975Z,21.17
2022-07-29T05:12:53.571Z,21.29
2022-07-29T05:15:21.097Z,21.42
2022-07-29T05:17:48.647Z,21.50
2022-07-29T05:20:16.243Z,21.59
2022-07-29T05:22:43.853Z,21.60
2022-07-29T05:25:11.327Z,21.79
2022-07-29T05:27:38.873Z,21.84
2022-07-29T05:30:09.121Z,21.94
2022-07-29T05:32:37.129Z,22.04
2022-07-29T05:35:04.892Z,22.22
2022-07-29T05:37:32.386Z,22.38
2022-07-29T05:40:02.307Z,22.55
2022-07-29T05:42:30.327Z,22.61
2022-07-29T05:44:57.852Z,22.64
2022-07-29T05:47:25.638Z,22.64
2022-07-29T05:49:53.387Z,22.80
2022-07-29T05:52:21.167Z,22.95
2022-07-29T05:54:48.829Z,23.14
2022-07-29T05:57:24.780Z,23.34
2022-07-29T05:59:52.564Z,23.29
2022-07-29T06:02:20.650Z,23.37
2022-07-29T06:04:48.429Z,23.46
2022-07-29T06:07:17.229Z,23.52
2022-07-29T06:09:44.766Z,23.67
2022-07-29T06:12:12.317Z,23.92
2022-07-29T06:14:40.146Z,24.10
2022-07-29T06:17:08.019Z,24.20
2022-07-29T06:19:36.504Z,24.33
2022-07-29T06:22:04.419Z,24.42
2022-07-29T06:24:31.948Z,24.56
2022-07-29T06:26:59.638Z,24.71
2022-07-29T06:29:27.191Z,24.84
2022-07-29T06:31:54.751Z,24.94
2022-07-29T06:34:22.242Z,25.02
2022-07-29T06:36:50.767Z,25.16
2022-07-29T06:39:18.461Z,25.22
2022-07-29T06:41:50.465Z,25.18
2022-07-29T06:44:19.410Z,25.21
2022-07-29T06:46:50.249Z,25.59
2022-07-29T06:49:17.786Z,25.74
2022-07-29T06:51:45.562Z,25.59
2022-07-29T06:54:13.413Z,25.69
2022-07-29T06:56:42.783Z,26.02
2022-07-29T06:59:16.016Z,26.36
2022-07-29T07:01:44.499Z,26.67
2022-07-29T07:04:15.318Z,26.98
2022-07-29T07:06:43.136Z,27.31
2022-07-29T07:09:10.680Z,27.22
2022-07-29T07:11:38.135Z,27.47
2022-07-29T07:14:05.621Z,27.81
2022-07-29T07:16:33.380Z,28.27
2022-07-29T07:19:08.908Z,27.99
2022-07-29T07:21:36.607Z,27.82
2022-07-29T07:24:07.158Z,27.81
2022-07-29T07:26:37.564Z,28.08
2022-07-29T07:29:05.069Z,28.74
2022-07-29T07:31:33.022Z,28.71
2022-07-29T07:34:00.591Z,28.17
2022-07-29T07:36:28.125Z,28.06
2022-07-29T07:38:55.804Z,28.74
2022-07-29T07:41:23.563Z,29.60
2022-07-29T07:43:52.453Z,30.44
2022-07-29T07:46:20.154Z,31.14
2022-07-29T07:48:47.733Z,31.70
2022-07-29T07:51:15.354Z,32.15
2022-07-29T07:53:42.834Z,32.73
2022-07-29T07:56:12.228Z,33.15
2022-07-29T07:58:40.358Z,33.39
2022-07-29T08:01:08.435Z,33.89
2022-07-29T08:03:36.164Z,33.54
2022-07-29T08:06:04.929Z,32.48
2022-07-29T08:08:32.557Z,32.03
2022-07-29T08:11:02.126Z,32.46
2022-07-29T08:13:33.300Z,33.07
2022-07-29T08:16:02.744Z,33.70
2022-07-29T08:18:31.559Z,34.08
2022-07-29T08:20:59.982Z,33.57
2022-07-29T08:23:32.846Z,33.23
2022-07-29T08:26:14.155Z,33.23
2022-07-29T08:28:46.768Z,32.33
2022-07-29T08:31:15.101Z,31.07
2022-07-29T08:33:43.827Z,29.95
2022-07-29T08:36:11.542Z,29.17
2022-07-29T08:38:39.050Z,28.85
2022-07-29T08:41:07.190Z,28.88
2022-07-29T08:43:38.603Z,29.44
2022-07-29T08:46:08.459Z,29.46
2022-07-29T08:48:37.171Z,29.59
2022-07-29T08:51:08.974Z,30.59
2022-07-29T08:53:39.156Z,31.98
2022-07-29T08:56:07.647Z,33.29
2022-07-29T08:58:36.866Z,33.71
2022-07-29T09:01:12.403Z,33.30
2022-07-29T09:03:44.830Z,33.37
2022-07-29T09:06:34.428Z,34.55
2022-07-29T09:09:02.087Z,35.00
2022-07-29T09:11:29.716Z,35.60
2022-07-29T09:13:57.327Z,36.35
2022-07-29T09:16:50.795Z,37.18
2022-07-29T09:19:22.272Z,37.90
2022-07-29T09:21:58.920Z,37.56
2022-07-29T09:24:48.541Z,36.38
2022-07-29T09:27:23.409Z,35.32
2022-07-29T09:30:02.349Z,34.40
2022-07-29T09:32:31.431Z,32.98
2022-07-29T09:35:18.611Z,32.05
2022-07-29T09:37:46.934Z,30.66
2022-07-29T09:40:32.399Z,32.04
2022-07-29T09:43:11.781Z,33.95
2022-07-29T09:45:39.720Z,35.55
2022-07-29T09:48:20.737Z,36.30
2022-07-29T09:50:50.782Z,36.80
2022-07-29T09:53:38.160Z,37.36
2022-07-29T09:56:06.181Z,37.46
2022-07-29T09:58:36.789Z,37.94
2022-07-29T10:01:05.075Z,37.62
2022-07-29T10:03:32.989Z,37.06
2022-07-29T10:06:11.475Z,35.70
2022-07-29T10:08:39.211Z,34.41
2022-07-29T10:11:10.968Z,35.47
2022-07-29T10:13:39.460Z,36.78
2022-07-29T10:16:07.543Z,37.51
2022-07-29T10:18:35.530Z,37.74
2022-07-29T10:21:03.320Z,37.26
2022-07-29T10:23:46.369Z,38.02
2022-07-29T10:26:16.768Z,39.49
2022-07-29T10:28:47.055Z,40.55
2022-07-29T10:31:29.674Z,41.57
2022-07-29T10:34:06.192Z,41.91
2022-07-29T10:37:02.989Z,41.89
2022-07-29T10:39:44.717Z,41.44
2022-07-29T10:42:29.569Z,40.87
2022-07-29T10:45:01.898Z,39.22
2022-07-29T10:47:31.127Z,37.56
2022-07-29T10:50:02.259Z,36.11
2022-07-29T10:52:53.780Z,34.95
2022-07-29T10:55:44.570Z,34.59
2022-07-29T10:58:23.565Z,33.73
2022-07-29T11:00:53.759Z,32.66
2022-07-29T11:03:50.329Z,31.87
2022-07-29T11:06:26.822Z,30.73
2022-07-29T11:09:19.996Z,30.15
2022-07-29T11:11:58.167Z,29.34
2022-07-29T11:14:53.570Z,29.19
2022-07-29T11:17:21.273Z,28.61
2022-07-29T11:19:52.218Z,28.24
2022-07-29T11:22:34.577Z,30.02
2022-07-29T11:25:16.721Z,33.45
2022-07-29T11:27:46.252Z,34.14
2022-07-29T11:30:15.780Z,33.62
2022-07-29T11:32:48.735Z,32.64
2022-07-29T11:35:38.008Z,31.47
2022-07-29T11:38:27.857Z,30.73
2022-07-29T11:41:22.672Z,31.12
2022-07-29T11:43:54.922Z,33.38
2022-07-29T11:46:47.868Z,36.20
2022-07-29T11:49:32.383Z,36.61
2022-07-29T11:52:04.490Z,34.75
2022-07-29T11:54:38.925Z,33.43
2022-07-29T11:57:23.118Z,34.61
2022-07-29T12:03:01.737Z,38.19
2022-07-29T12:05:40.193Z,39.12
2022-07-29T12:08:23.834Z,39.63
2022-07-29T12:10:52.332Z,39.73
2022-07-29T12:13:22.450Z,39.00
2022-07-29T12:15:59.703Z,38.63
2022-07-29T12:18:28.054Z,36.86
2022-07-29T12:21:03.643Z,35.69
2022-07-29T12:23:35.034Z,36.30
2022-07-29T12:26:07.228Z,35.38
2022-07-29T12:28:39.904Z,34.10
2022-07-29T12:31:15.105Z,32.92
2022-07-29T12:34:02.765Z,32.23
2022-07-29T12:36:30.590Z,31.62
2022-07-29T12:38:58.279Z,30.85
2022-07-29T12:41:25.897Z,30.21
2022-07-29T12:43:58.813Z,29.73
2022-07-29T12:46:26.392Z,29.44
2022-07-29T12:48:59.721Z,29.53
2022-07-29T12:51:34.157Z,30.02
2022-07-29T12:54:11.690Z,30.15
2022-07-29T12:56:44.347Z,29.67
2022-07-29T12:59:20.485Z,29.38
2022-07-29T13:01:52.768Z,28.92
2022-07-29T13:04:31.931Z,28.66
2022-07-29T13:07:00.907Z,28.34
2022-07-29T13:09:39.137Z,28.21
2022-07-29T13:12:14.640Z,28.09
2022-07-29T13:14:47.166Z,28.08
2022-07-29T13:17:32.796Z,28.19
2022-07-29T13:20:10.323Z,28.27
2022-07-29T13:22:37.856Z,28.01
2022-07-29T13:25:07.759Z,27.86
2022-07-29T13:27:38.297Z,27.74
2022-07-29T13:30:08.305Z,27.59
2022-07-29T13:32:37.418Z,27.44
2022-07-29T13:35:08.102Z,27.31
2022-07-29T13:37:39.345Z,27.11
2022-07-29T13:40:09.637Z,26.93
2022-07-29T13:42:38.704Z,26.72
2022-07-29T13:45:07.772Z,26.55
2022-07-29T13:47:35.527Z,26.45
2022-07-29T13:50:07.398Z,26.34
2022-07-29T13:52:35.767Z,26.24
2022-07-29T13:55:04.399Z,26.19
2022-07-29T13:57:31.976Z,26.14
2022-07-29T13:59:59.572Z,26.10
2022-07-29T14:02:30.156Z,26.17
2022-07-29T14:04:57.768Z,26.19
2022-07-29T14:07:25.390Z,26.17
2022-07-29T14:09:52.914Z,26.16
2022-07-29T14:12:20.667Z,26.05
2022-07-29T14:14:48.203Z,26.09
2022-07-29T14:17:16.446Z,26.03
2022-07-29T14:19:44.131Z,26.02
2022-07-29T14:22:11.683Z,25.98
2022-07-29T14:24:39.846Z,25.96
2022-07-29T14:27:08.891Z,25.89
2022-07-29T14:29:37.989Z,25.81
2022-07-29T14:32:08.297Z,25.89
2022-07-29T14:34:38.002Z,25.85
2022-07-29T14:37:09.572Z,25.86
2022-07-29T14:39:43.710Z,25.80
2022-07-29T14:42:12.589Z,25.68
2022-07-29T14:44:42.579Z,25.65
2022-07-29T14:47:10.558Z,25.59
2022-07-29T14:49:38.115Z,25.50
2022-07-29T14:52:05.841Z,25.48
2022-07-29T14:54:33.501Z,25.42
2022-07-29T14:57:01.048Z,25.39
2022-07-29T14:59:29.543Z,25.38
2022-07-29T15:01:57.425Z,25.38
2022-07-29T15:04:25.286Z,25.41
2022-07-29T15:06:53.010Z,25.38
2022-07-29T15:09:20.677Z,25.30
2022-07-29T15:11:48.284Z,25.23
2022-07-29T15:14:15.807Z,25.17
2022-07-29T15:16:43.946Z,25.00
2022-07-29T15:19:14.362Z,24.93
2022-07-29T15:21:48.645Z,24.79
2022-07-29T15:24:20.697Z,24.69
2022-07-29T15:26:48.574Z,24.68
2022-07-29T15:29:16.523Z,24.67
2022-07-29T15:31:44.794Z,24.60
2022-07-29T15:34:12.487Z,24.49
2022-07-29T15:36:55.538Z,24.44
2022-07-29T15:39:23.596Z,24.45
2022-07-29T15:41:53.767Z,24.42
2022-07-29T15:44:21.488Z,24.39
2022-07-29T15:47:08.447Z,24.39
2022-07-29T15:49:48.027Z,24.38
2022-07-29T15:52:26.146Z,24.41
2022-07-29T15:54:58.046Z,24.43
2022-07-29T15:57:26.235Z,24.44
2022-07-29T15:59:53.788Z,24.50
2022-07-29T16:02:21.584Z,24.52
2022-07-29T16:04:51.540Z,24.55
2022-07-29T16:07:21.343Z,24.48
2022-07-29T16:09:53.194Z,24.41
2022-07-29T16:12:21.239Z,24.25
2022-07-29T16:14:51.010Z,24.13
2022-07-29T16:17:18.631Z,23.92
2022-07-29T16:19:46.414Z,23.81
2022-07-29T16:22:14.075Z,23.62
2022-07-29T16:24:41.842Z,23.49
2022-07-29T16:27:09.541Z,23.34
2022-07-29T16:29:37.486Z,23.22
2022-07-29T16:32:06.222Z,23.12
2022-07-29T16:34:34.063Z,23.06
2022-07-29T16:37:01.752Z,22.94
2022-07-29T16:39:29.467Z,22.96
2022-07-29T16:42:00.031Z,22.91
2022-07-29T16:44:29.275Z,22.85
2022-07-29T16:46:59.383Z,22.81
2022-07-29T16:49:28.577Z,22.79
2022-07-29T16:51:56.119Z,22.67
2022-07-29T16:54:23.819Z,22.57
2022-07-29T16:56:51.500Z,22.51
2022-07-29T16:59:19.128Z,22.41
2022-07-29T17:01:46.753Z,22.32
2022-07-29T17:04:15.210Z,22.22
2022-07-29T17:06:42.784Z,22.16
2022-07-29T17:09:11.920Z,22.09
2022-07-29T17:11:52.325Z,22.02
2022-07-29T17:14:29.327Z,21.90
2022-07-29T17:17:01.328Z,21.89
2022-07-29T17:19:32.907Z,21.83
2022-07-29T17:22:09.437Z,21.80
2022-07-29T17:24:40.989Z,21.78
2022-07-29T17:27:09.784Z,21.64
2022-07-29T17:29:38.978Z,21.64
2022-07-29T17:32:09.199Z,21.54
2022-07-29T17:34:38.734Z,21.45
2022-07-29T17:37:08.299Z,21.40
2022-07-29T17:39:36.581Z,21.37
2022-07-29T17:42:08.031Z,21.27
2022-07-29T17:44:36.270Z,21.21
2022-07-29T17:47:05.764Z,21.19
2022-07-29T17:49:36.016Z,21.18
2022-07-29T17:52:04.067Z,21.12
2022-07-29T17:54:31.732Z,21.03
2022-07-29T17:56:59.637Z,21.10
2022-07-29T17:59:27.529Z,21.07
2022-07-29T18:01:55.128Z,21.03
2022-07-29T18:04:23.684Z,21.00
2022-07-29T18:06:51.694Z,20.92
2022-07-29T18:09:19.194Z,20.91
2022-07-29T18:11:47.615Z,20.90
2022-07-29T18:14:15.215Z,20.90
2022-07-29T18:16:42.766Z,20.81
2022-07-29T18:19:12.407Z,20.84
2022-07-29T18:21:46.024Z,20.90
2022-07-29T18:24:22.192Z,20.91
2022-07-29T18:26:49.747Z,20.86
2022-07-29T18:29:17.220Z,20.78
2022-07-29T18:31:44.885Z,20.66
2022-07-29T18:34:12.418Z,20.67
2022-07-29T18:36:39.892Z,20.53
2022-07-29T18:39:07.384Z,20.48
2022-07-29T18:41:36.158Z,20.45
2022-07-29T18:44:22.080Z,20.40
2022-07-29T18:46:52.048Z,20.43
2022-07-29T18:49:19.867Z,20.36
2022-07-29T18:51:48.094Z,20.23
2022-07-29T18:54:18.150Z,20.25
2022-07-29T18:56:48.993Z,20.22
2022-07-29T18:59:19.647Z,20.16
2022-07-29T19:01:48.681Z,20.15
2022-07-29T19:04:17.459Z,20.09
2022-07-29T19:06:45.238Z,20.03
2022-07-29T19:09:17.362Z,20.08
2022-07-29T19:11:44.960Z,20.02
2022-07-29T19:14:14.701Z,19.97
2022-07-29T19:16:42.236Z,19.98
2022-07-29T19:19:09.763Z,19.93
2022-07-29T19:21:37.310Z,19.90
2022-07-29T19:24:11.048Z,19.83
2022-07-29T19:26:46.744Z,19.85
2022-07-29T19:29:17.799Z,19.77
2022-07-29T19:31:45.549Z,19.74
2022-07-29T19:34:13.349Z,19.64
2022-07-29T19:36:41.941Z,19.64
2022-07-29T19:39:09.695Z,19.60
2022-07-29T19:41:38.075Z,19.53
2022-07-29T19:44:05.700Z,19.43
2022-07-29T19:46:33.249Z,19.38
2022-07-29T19:49:00.899Z,19.46
2022-07-29T19:51:28.637Z,19.34
2022-07-29T19:53:56.173Z,19.33
2022-07-29T19:56:26.705Z,19.29
2022-07-29T19:58:57.139Z,19.33
2022-07-29T20:01:24.965Z,19.32
2022-07-29T20:03:53.920Z,19.29
2022-07-29T20:06:21.561Z,19.27
2022-07-29T20:08:49.236Z,19.22
2022-07-29T20:11:17.211Z,19.22
2022-07-29T20:13:44.896Z,19.20
2022-07-29T20:16:12.514Z,19.16
2022-07-29T20:18:40.020Z,19.12
2022-07-29T20:21:07.621Z,19.09
2022-07-29T20:23:35.206Z,19.07
2022-07-29T20:26:05.114Z,19.04
2022-07-29T20:28:34.965Z,18.94
2022-07-29T20:31:02.494Z,18.93
2022-07-29T20:33:30.244Z,18.96
2022-07-29T20:35:57.701Z,18.88
2022-07-29T20:38:25.273Z,18.89
2022-07-29T20:40:54.546Z,18.89
2022-07-29T20:43:22.034Z,18.82
2022-07-29T20:45:49.649Z,18.80
2022-07-29T20:48:17.246Z,18.79
2022-07-29T20:50:46.403Z,18.80
2022-07-29T20:53:13.961Z,18.74
2022-07-29T20:55:41.500Z,18.74
2022-07-29T20:58:09.065Z,18.73
2022-07-29T21:00:36.900Z,18.69
2022-07-29T21:03:04.448Z,18.74
2022-07-29T21:05:32.894Z,18.73
2022-07-29T21:08:00.467Z,18.68
2022-07-29T21:10:29.482Z,18.75
2022-07-29T21:12:56.951Z,18.74
2022-07-29T21:15:24.801Z,18.67
2022-07-29T21:18:00.252Z,18.70
2022-07-29T21:20:28.410Z,18.66
2022-07-29T21:22:56.156Z,18.67
2022-07-29T21:25:25.249Z,18.59
2022-07-29T21:28:11.396Z,18.50
2022-07-29T21:30:38.934Z,18.49
2022-07-29T21:33:06.547Z,18.48
2022-07-29T21:36:01.849Z,18.41
2022-07-29T21:38:21.541Z,18.60
2022-07-29T21:40:51.263Z,18.37
2022-07-29T21:43:19.983Z,18.41
2022-07-29T21:45:47.840Z,18.33
2022-07-29T21:48:15.526Z,18.32
2022-07-29T21:50:43.310Z,18.28
2022-07-29T21:53:11.135Z,18.30
2022-07-29T21:55:41.733Z,18.26
2022-07-29T21:58:11.078Z,18.18
2022-07-29T22:00:38.591Z,18.10
2022-07-29T22:03:07.465Z,18.15
2022-07-29T22:05:34.958Z,18.13
2022-07-29T22:08:03.044Z,18.04
2022-07-29T22:10:31.480Z,18.10
2022-07-29T22:13:00.566Z,18.01
2022-07-29T22:15:31.006Z,18.06
2022-07-29T22:17:59.167Z,18.02
2022-07-29T22:20:27.215Z,17.98
2022-07-29T22:22:55.064Z,17.97
2022-07-29T22:25:30.071Z,17.93
2022-07-29T22:27:57.619Z,17.80
2022-07-29T22:30:25.250Z,17.75
2022-07-29T22:32:52.701Z,17.81
2022-07-29T22:35:20.405Z,17.74
2022-07-29T22:37:47.871Z,17.73
2022-07-29T22:40:15.358Z,17.71
2022-07-29T22:42:42.820Z,17.60
2022-07-29T22:45:10.778Z,17.66
2022-07-29T22:47:47.973Z,17.57
2022-07-29T22:50:17.112Z,17.55
2022-07-29T22:52:45.963Z,17.52
2022-07-29T22:55:16.295Z,17.48
2022-07-29T22:57:43.810Z,17.47
2022-07-29T23:00:12.861Z,17.36
2022-07-29T23:02:42.852Z,17.36
2022-07-29T23:05:10.796Z,17.40
2022-07-29T23:07:38.554Z,17.36
2022-07-29T23:10:06.601Z,17.32
2022-07-29T23:12:34.240Z,17.30
2022-07-29T23:15:01.788Z,17.31
2022-07-29T23:17:36.641Z,17.22
2022-07-29T23:20:07.728Z,17.25
2022-07-29T23:22:36.253Z,17.25
2022-07-29T23:25:06.340Z,17.21
2022-07-29T23:27:33.924Z,17.16
2022-07-29T23:30:01.522Z,17.13
2022-07-29T23:32:30.228Z,17.07
2022-07-29T23:34:57.823Z,17.09
2022-07-29T23:37:26.961Z,17.01
2022-07-29T23:39:54.609Z,16.95
2022-07-29T23:42:22.234Z,16.91
2022-07-29T23:44:49.754Z,16.88
2022-07-29T23:47:17.270Z,16.86
2022-07-29T23:49:44.780Z,16.83
2022-07-29T23:52:12.397Z,16.77
2022-07-29T23:54:39.857Z,16.69
2022-07-29T23:57:07.325Z,16.71
2022-07-29T23:59:35.814Z,16.68
